sensor_id;sensor_type;location;lat;lon;timestamp;noise_LAeq;noise_LA_min;noise_LA_max;noise_LA01;noise_LA95
81493;Laerm;70900;51.798;10.954;2023-09-18T00:00:37;26.27;24.58;41.42;;
81493;Laerm;70900;51.798;10.954;2023-09-18T00:03:02;27.75;24.97;39.14;;
81493;Laerm;70900;51.798;10.954;2023-09-18T00:05:28;28.25;25.32;34.31;;
81493;Laerm;70900;51.798;10.954;2023-09-18T00:07:53;30.51;25.38;46.59;;
81493;Laerm;70900;51.798;10.954;2023-09-18T00:10:19;28.68;26.03;38.90;;
81493;Laerm;70900;51.798;10.954;2023-09-18T00:12:44;31.19;27.68;50.75;;
81493;Laerm;70900;51.798;10.954;2023-09-18T00:15:09;31.00;27.04;37.09;;
81493;Laerm;70900;51.798;10.954;2023-09-18T00:17:35;26.98;25.07;44.87;;
81493;Laerm;70900;51.798;10.954;2023-09-18T00:20:01;29.55;25.67;43.84;;
81493;Laerm;70900;51.798;10.954;2023-09-18T00:22:28;28.05;24.51;34.51;;
81493;Laerm;70900;51.798;10.954;2023-09-18T00:24:53;27.16;24.77;40.72;;
81493;Laerm;70900;51.798;10.954;2023-09-18T00:27:19;25.86;24.49;28.54;;
81493;Laerm;70900;51.798;10.954;2023-09-18T00:29:44;25.24;23.89;27.10;;
81493;Laerm;70900;51.798;10.954;2023-09-18T00:32:09;25.79;23.80;32.85;;
81493;Laerm;70900;51.798;10.954;2023-09-18T00:34:35;28.14;24.19;41.27;;
81493;Laerm;70900;51.798;10.954;2023-09-18T00:37:00;25.61;24.16;29.59;;
81493;Laerm;70900;51.798;10.954;2023-09-18T00:39:26;26.21;23.79;37.48;;
81493;Laerm;70900;51.798;10.954;2023-09-18T00:41:51;25.06;23.97;28.65;;
81493;Laerm;70900;51.798;10.954;2023-09-18T00:44:22;26.05;23.74;34.74;;
81493;Laerm;70900;51.798;10.954;2023-09-18T00:46:48;30.80;24.09;42.01;;
81493;Laerm;70900;51.798;10.954;2023-09-18T00:49:14;31.65;24.32;52.64;;
81493;Laerm;70900;51.798;10.954;2023-09-18T00:51:39;26.51;24.33;42.56;;
81493;Laerm;70900;51.798;10.954;2023-09-18T00:54:05;28.55;25.21;46.14;;
81493;Laerm;70900;51.798;10.954;2023-09-18T00:56:32;28.03;24.60;45.56;;
81493;Laerm;70900;51.798;10.954;2023-09-18T00:58:57;27.99;24.50;39.78;;
81493;Laerm;70900;51.798;10.954;2023-09-18T01:01:23;35.80;28.11;42.59;;
81493;Laerm;70900;51.798;10.954;2023-09-18T01:06:58;31.58;25.12;49.69;;
81493;Laerm;70900;51.798;10.954;2023-09-18T01:09:43;29.42;25.60;43.68;;
81493;Laerm;70900;51.798;10.954;2023-09-18T01:12:49;41.14;27.01;48.90;;
81493;Laerm;70900;51.798;10.954;2023-09-18T01:15:38;37.35;29.97;43.33;;
81493;Laerm;70900;51.798;10.954;2023-09-18T01:18:35;36.25;27.73;50.70;;
81493;Laerm;70900;51.798;10.954;2023-09-18T01:21:19;31.13;27.52;41.97;;
81493;Laerm;70900;51.798;10.954;2023-09-18T01:24:10;29.23;26.43;42.16;;
81493;Laerm;70900;51.798;10.954;2023-09-18T01:26:51;28.57;26.08;32.66;;
81493;Laerm;70900;51.798;10.954;2023-09-18T01:29:57;31.60;26.51;42.94;;
81493;Laerm;70900;51.798;10.954;2023-09-18T01:35:47;34.12;27.31;45.93;;
81493;Laerm;70900;51.798;10.954;2023-09-18T01:38:42;50.05;26.66;67.31;;
81493;Laerm;70900;51.798;10.954;2023-09-18T01:47:24;32.36;28.19;45.15;;
81493;Laerm;70900;51.798;10.954;2023-09-18T01:50:12;33.22;28.89;44.57;;
81493;Laerm;70900;51.798;10.954;2023-09-18T01:55:54;30.24;27.30;44.58;;
81493;Laerm;70900;51.798;10.954;2023-09-18T01:58:33;30.68;26.70;36.00;;
81493;Laerm;70900;51.798;10.954;2023-09-18T02:01:20;37.01;29.03;47.11;;
81493;Laerm;70900;51.798;10.954;2023-09-18T02:04:00;31.43;27.93;40.23;;
81493;Laerm;70900;51.798;10.954;2023-09-18T02:06:50;32.95;28.48;38.45;;
81493;Laerm;70900;51.798;10.954;2023-09-18T02:09:44;32.33;28.48;42.55;;
81493;Laerm;70900;51.798;10.954;2023-09-18T02:12:39;32.99;29.75;37.69;;
81493;Laerm;70900;51.798;10.954;2023-09-18T02:15:35;33.22;28.36;41.40;;
81493;Laerm;70900;51.798;10.954;2023-09-18T02:18:18;33.86;29.34;38.27;;
81493;Laerm;70900;51.798;10.954;2023-09-18T02:21:09;34.21;29.54;40.61;;
81493;Laerm;70900;51.798;10.954;2023-09-18T02:24:04;33.30;30.33;36.47;;
81493;Laerm;70900;51.798;10.954;2023-09-18T02:26:53;34.38;30.56;52.63;;
81493;Laerm;70900;51.798;10.954;2023-09-18T02:32:44;35.31;31.03;51.70;;
81493;Laerm;70900;51.798;10.954;2023-09-18T02:35:45;34.54;30.63;50.85;;
81493;Laerm;70900;51.798;10.954;2023-09-18T02:38:50;35.31;31.66;44.43;;
81493;Laerm;70900;51.798;10.954;2023-09-18T02:41:35;34.59;31.29;42.70;;
81493;Laerm;70900;51.798;10.954;2023-09-18T02:44:39;33.91;29.93;48.29;;
81493;Laerm;70900;51.798;10.954;2023-09-18T02:47:37;34.37;30.16;40.41;;
81493;Laerm;70900;51.798;10.954;2023-09-18T02:50:30;36.50;31.29;47.01;;
81493;Laerm;70900;51.798;10.954;2023-09-18T02:53:21;44.49;30.69;59.96;;
81493;Laerm;70900;51.798;10.954;2023-09-18T02:56:07;48.10;31.31;64.66;;
81493;Laerm;70900;51.798;10.954;2023-09-18T02:58:55;34.13;31.03;53.12;;
81493;Laerm;70900;51.798;10.954;2023-09-18T03:01:55;34.72;31.24;42.37;;
81493;Laerm;70900;51.798;10.954;2023-09-18T03:04:34;45.93;31.22;65.34;;
81493;Laerm;70900;51.798;10.954;2023-09-18T03:07:22;41.97;32.00;62.41;;
81493;Laerm;70900;51.798;10.954;2023-09-18T03:10:08;35.70;31.82;46.00;;
81493;Laerm;70900;51.798;10.954;2023-09-18T03:12:54;50.15;32.13;66.88;;
81493;Laerm;70900;51.798;10.954;2023-09-18T03:15:42;36.75;32.11;48.18;;
81493;Laerm;70900;51.798;10.954;2023-09-18T03:18:35;38.32;33.91;45.85;;
81493;Laerm;70900;51.798;10.954;2023-09-18T03:21:20;39.91;35.01;52.58;;
81493;Laerm;70900;51.798;10.954;2023-09-18T03:24:16;39.46;35.29;48.80;;
81493;Laerm;70900;51.798;10.954;2023-09-18T03:26:56;48.54;36.72;63.02;;
81493;Laerm;70900;51.798;10.954;2023-09-18T03:29:42;50.24;35.72;65.92;;
81493;Laerm;70900;51.798;10.954;2023-09-18T03:32:24;42.62;37.42;58.72;;
81493;Laerm;70900;51.798;10.954;2023-09-18T03:35:04;40.88;38.07;46.87;;
81493;Laerm;70900;51.798;10.954;2023-09-18T03:37:55;50.56;38.03;64.69;;
81493;Laerm;70900;51.798;10.954;2023-09-18T03:40:51;49.96;38.75;65.64;;
81493;Laerm;70900;51.798;10.954;2023-09-18T03:43:47;44.49;38.39;53.08;;
81493;Laerm;70900;51.798;10.954;2023-09-18T03:46:45;48.25;37.07;63.28;;
81493;Laerm;70900;51.798;10.954;2023-09-18T03:49:31;50.57;38.07;67.03;;
81493;Laerm;70900;51.798;10.954;2023-09-18T03:52:23;45.63;37.79;58.90;;
81493;Laerm;70900;51.798;10.954;2023-09-18T03:55:20;49.53;38.15;66.03;;
81493;Laerm;70900;51.798;10.954;2023-09-18T03:58:10;54.25;38.58;71.23;;
81493;Laerm;70900;51.798;10.954;2023-09-18T04:01:08;52.90;37.98;67.22;;
81493;Laerm;70900;51.798;10.954;2023-09-18T04:04:07;48.90;36.94;63.28;;
81493;Laerm;70900;51.798;10.954;2023-09-18T04:07:04;46.06;37.49;60.16;;
81493;Laerm;70900;51.798;10.954;2023-09-18T04:09:56;41.40;37.93;49.39;;
81493;Laerm;70900;51.798;10.954;2023-09-18T04:12:53;54.65;36.87;71.71;;
81493;Laerm;70900;51.798;10.954;2023-09-18T04:15:43;47.88;36.61;63.65;;
81493;Laerm;70900;51.798;10.954;2023-09-18T04:21:21;48.75;37.04;65.50;;
81493;Laerm;70900;51.798;10.954;2023-09-18T04:24:00;41.31;36.77;50.59;;
81493;Laerm;70900;51.798;10.954;2023-09-18T04:26:51;53.13;38.30;70.31;;
81493;Laerm;70900;51.798;10.954;2023-09-18T04:29:41;51.57;38.70;67.91;;
81493;Laerm;70900;51.798;10.954;2023-09-18T04:32:49;53.00;38.48;66.37;;
81493;Laerm;70900;51.798;10.954;2023-09-18T04:38:19;52.34;39.93;68.77;;
81493;Laerm;70900;51.798;10.954;2023-09-18T04:41:04;56.40;40.07;68.42;;
81493;Laerm;70900;51.798;10.954;2023-09-18T04:43:56;55.97;38.86;68.24;;
81493;Laerm;70900;51.798;10.954;2023-09-18T04:46:47;53.37;38.60;65.42;;
81493;Laerm;70900;51.798;10.954;2023-09-18T04:49:35;54.21;40.91;66.74;;
81493;Laerm;70900;51.798;10.954;2023-09-18T04:52:21;55.10;41.24;67.54;;
81493;Laerm;70900;51.798;10.954;2023-09-18T04:55:31;55.53;41.04;72.17;;
81493;Laerm;70900;51.798;10.954;2023-09-18T05:01:28;56.92;40.40;69.95;;
81493;Laerm;70900;51.798;10.954;2023-09-18T05:07:03;58.98;38.20;71.44;;
81493;Laerm;70900;51.798;10.954;2023-09-18T05:10:03;53.98;39.53;65.84;;
81493;Laerm;70900;51.798;10.954;2023-09-18T05:12:48;59.74;40.60;74.19;;
81493;Laerm;70900;51.798;10.954;2023-09-18T05:15:38;52.34;39.05;65.17;;
81493;Laerm;70900;51.798;10.954;2023-09-18T05:18:22;53.80;41.54;64.09;;
81493;Laerm;70900;51.798;10.954;2023-09-18T05:23:53;58.08;42.25;71.25;;
81493;Laerm;70900;51.798;10.954;2023-09-18T05:27:05;59.00;40.17;74.33;;
81493;Laerm;70900;51.798;10.954;2023-09-18T05:36:01;58.08;39.93;69.35;;
81493;Laerm;70900;51.798;10.954;2023-09-18T05:38:46;62.65;45.53;78.98;;
81493;Laerm;70900;51.798;10.954;2023-09-18T05:44:50;56.33;40.89;66.94;;
81493;Laerm;70900;51.798;10.954;2023-09-18T05:50:39;60.63;42.20;78.15;;
81493;Laerm;70900;51.798;10.954;2023-09-18T05:53:34;54.90;41.89;65.48;;
81493;Laerm;70900;51.798;10.954;2023-09-18T05:56:18;55.98;43.26;65.34;;
81493;Laerm;70900;51.798;10.954;2023-09-18T05:59:17;55.57;40.05;66.95;;
81493;Laerm;70900;51.798;10.954;2023-09-18T06:05:14;54.07;39.96;73.34;;
81493;Laerm;70900;51.798;10.954;2023-09-18T06:08:17;53.86;40.44;69.11;;
81493;Laerm;70900;51.798;10.954;2023-09-18T06:11:05;59.26;40.47;76.32;;
81493;Laerm;70900;51.798;10.954;2023-09-18T06:14:01;51.71;38.01;63.61;;
81493;Laerm;70900;51.798;10.954;2023-09-18T06:16:51;56.77;40.12;68.61;;
81493;Laerm;70900;51.798;10.954;2023-09-18T06:19:40;53.74;39.36;67.77;;
81493;Laerm;70900;51.798;10.954;2023-09-18T06:22:32;54.23;39.07;65.65;;
81493;Laerm;70900;51.798;10.954;2023-09-18T06:25:43;56.61;38.09;68.05;;
81493;Laerm;70900;51.798;10.954;2023-09-18T06:28:31;48.83;38.25;63.39;;
81493;Laerm;70900;51.798;10.954;2023-09-18T06:31:19;46.23;37.69;61.42;;
81493;Laerm;70900;51.798;10.954;2023-09-18T06:34:04;56.36;37.87;73.87;;
81493;Laerm;70900;51.798;10.954;2023-09-18T06:36:57;55.82;37.30;70.43;;
81493;Laerm;70900;51.798;10.954;2023-09-18T06:39:47;51.87;37.24;67.29;;
81493;Laerm;70900;51.798;10.954;2023-09-18T06:42:39;55.34;36.28;70.26;;
81493;Laerm;70900;51.798;10.954;2023-09-18T06:45:25;54.78;36.98;71.50;;
81493;Laerm;70900;51.798;10.954;2023-09-18T06:48:16;49.51;35.74;63.44;;
81493;Laerm;70900;51.798;10.954;2023-09-18T06:51:09;58.16;41.08;69.81;;
81493;Laerm;70900;51.798;10.954;2023-09-18T06:53:58;56.56;36.04;70.89;;
81493;Laerm;70900;51.798;10.954;2023-09-18T06:56:43;54.76;34.71;67.86;;
81493;Laerm;70900;51.798;10.954;2023-09-18T06:59:39;57.87;35.43;73.40;;
81493;Laerm;70900;51.798;10.954;2023-09-18T07:05:23;55.55;36.39;69.16;;
81493;Laerm;70900;51.798;10.954;2023-09-18T07:08:11;53.16;35.54;68.27;;
81493;Laerm;70900;51.798;10.954;2023-09-18T07:10:54;52.57;36.94;64.97;;
81493;Laerm;70900;51.798;10.954;2023-09-18T07:13:44;55.35;37.94;67.71;;
81493;Laerm;70900;51.798;10.954;2023-09-18T07:16:31;46.73;37.10;61.55;;
81493;Laerm;70900;51.798;10.954;2023-09-18T07:19:30;51.30;38.02;67.83;;
81493;Laerm;70900;51.798;10.954;2023-09-18T07:22:23;55.70;38.15;73.10;;
81493;Laerm;70900;51.798;10.954;2023-09-18T07:25:07;53.81;38.86;66.14;;
81493;Laerm;70900;51.798;10.954;2023-09-18T07:30:53;61.24;41.45;74.01;;
81493;Laerm;70900;51.798;10.954;2023-09-18T07:33:45;67.15;56.96;74.72;;
81493;Laerm;70900;51.798;10.954;2023-09-18T07:39:41;60.10;55.90;70.85;;
81493;Laerm;70900;51.798;10.954;2023-09-18T07:42:36;64.28;57.17;71.26;;
81493;Laerm;70900;51.798;10.954;2023-09-18T07:45:17;63.32;56.23;70.25;;
81493;Laerm;70900;51.798;10.954;2023-09-18T07:48:09;61.86;56.30;69.50;;
81493;Laerm;70900;51.798;10.954;2023-09-18T07:51:18;58.37;41.91;72.42;;
81493;Laerm;70900;51.798;10.954;2023-09-18T07:54:17;55.70;37.26;66.99;;
81493;Laerm;70900;51.798;10.954;2023-09-18T07:57:09;53.46;36.88;73.05;;
81493;Laerm;70900;51.798;10.954;2023-09-18T08:00:11;53.40;38.45;65.12;;
81493;Laerm;70900;51.798;10.954;2023-09-18T08:03:00;63.81;38.78;81.13;;
81493;Laerm;70900;51.798;10.954;2023-09-18T08:05:43;55.69;37.95;70.21;;
81493;Laerm;70900;51.798;10.954;2023-09-18T08:08:36;54.00;38.36;66.37;;
81493;Laerm;70900;51.798;10.954;2023-09-18T08:11:29;58.61;38.17;81.40;;
81493;Laerm;70900;51.798;10.954;2023-09-18T08:14:23;54.33;36.47;69.02;;
81493;Laerm;70900;51.798;10.954;2023-09-18T08:17:26;45.69;36.13;59.67;;
81493;Laerm;70900;51.798;10.954;2023-09-18T08:20:13;55.10;37.24;67.51;;
81493;Laerm;70900;51.798;10.954;2023-09-18T08:22:54;60.01;39.48;76.74;;
81493;Laerm;70900;51.798;10.954;2023-09-18T08:25:40;52.65;39.15;63.49;;
81493;Laerm;70900;51.798;10.954;2023-09-18T08:28:36;51.94;38.98;64.24;;
81493;Laerm;70900;51.798;10.954;2023-09-18T08:31:28;53.49;39.12;67.00;;
81493;Laerm;70900;51.798;10.954;2023-09-18T08:34:14;60.95;39.85;77.48;;
81493;Laerm;70900;51.798;10.954;2023-09-18T08:37:07;57.91;41.20;81.03;;
81493;Laerm;70900;51.798;10.954;2023-09-18T08:39:57;52.57;38.74;67.52;;
81493;Laerm;70900;51.798;10.954;2023-09-18T08:42:53;55.80;40.22;67.80;;
81493;Laerm;70900;51.798;10.954;2023-09-18T08:45:50;57.24;41.09;69.72;;
81493;Laerm;70900;51.798;10.954;2023-09-18T08:48:33;51.44;38.95;65.04;;
81493;Laerm;70900;51.798;10.954;2023-09-18T08:51:26;54.17;38.93;65.02;;
81493;Laerm;70900;51.798;10.954;2023-09-18T08:54:15;52.39;37.62;64.73;;
81493;Laerm;70900;51.798;10.954;2023-09-18T08:56:59;47.65;38.73;62.40;;
81493;Laerm;70900;51.798;10.954;2023-09-18T08:59:53;53.05;38.98;63.76;;
81493;Laerm;70900;51.798;10.954;2023-09-18T09:02:39;51.06;39.87;65.50;;
81493;Laerm;70900;51.798;10.954;2023-09-18T09:05:26;54.20;37.56;66.20;;
81493;Laerm;70900;51.798;10.954;2023-09-18T09:08:18;55.68;41.94;67.26;;
81493;Laerm;70900;51.798;10.954;2023-09-18T09:11:10;45.59;37.82;65.59;;
81493;Laerm;70900;51.798;10.954;2023-09-18T09:14:08;54.39;38.68;66.22;;
81493;Laerm;70900;51.798;10.954;2023-09-18T09:16:55;53.59;36.48;65.57;;
81493;Laerm;70900;51.798;10.954;2023-09-18T09:19:46;45.39;36.59;56.13;;
81493;Laerm;70900;51.798;10.954;2023-09-18T09:25:31;57.53;38.99;74.73;;
81493;Laerm;70900;51.798;10.954;2023-09-18T09:28:15;54.50;39.13;69.86;;
81493;Laerm;70900;51.798;10.954;2023-09-18T09:31:03;54.50;40.19;68.80;;
81493;Laerm;70900;51.798;10.954;2023-09-18T09:33:51;62.51;41.22;76.90;;
81493;Laerm;70900;51.798;10.954;2023-09-18T09:36:43;54.28;40.35;66.13;;
81493;Laerm;70900;51.798;10.954;2023-09-18T09:39:32;54.32;36.87;66.59;;
81493;Laerm;70900;51.798;10.954;2023-09-18T09:42:29;53.45;36.18;65.28;;
81493;Laerm;70900;51.798;10.954;2023-09-18T09:45:24;51.22;38.08;65.69;;
81493;Laerm;70900;51.798;10.954;2023-09-18T09:48:10;55.08;38.02;67.73;;
81493;Laerm;70900;51.798;10.954;2023-09-18T09:50:58;55.80;38.32;69.20;;
81493;Laerm;70900;51.798;10.954;2023-09-18T09:53:47;61.92;39.91;77.99;;
81493;Laerm;70900;51.798;10.954;2023-09-18T09:59:27;56.50;40.15;68.10;;
81493;Laerm;70900;51.798;10.954;2023-09-18T10:02:25;59.53;38.90;74.25;;
81493;Laerm;70900;51.798;10.954;2023-09-18T10:05:21;51.52;39.24;65.85;;
81493;Laerm;70900;51.798;10.954;2023-09-18T10:08:10;54.88;39.86;67.01;;
81493;Laerm;70900;51.798;10.954;2023-09-18T10:11:05;53.17;37.98;67.03;;
81493;Laerm;70900;51.798;10.954;2023-09-18T10:13:59;52.56;38.84;66.94;;
81493;Laerm;70900;51.798;10.954;2023-09-18T10:16:59;53.38;37.93;68.10;;
81493;Laerm;70900;51.798;10.954;2023-09-18T10:20:09;54.65;41.04;67.78;;
81493;Laerm;70900;51.798;10.954;2023-09-18T10:22:49;54.38;39.85;64.90;;
81493;Laerm;70900;51.798;10.954;2023-09-18T10:25:37;49.96;38.21;62.51;;
81493;Laerm;70900;51.798;10.954;2023-09-18T10:28:49;51.45;38.67;67.19;;
81493;Laerm;70900;51.798;10.954;2023-09-18T10:34:41;57.85;44.69;73.62;;
81493;Laerm;70900;51.798;10.954;2023-09-18T10:37:32;55.89;43.57;66.29;;
81493;Laerm;70900;51.798;10.954;2023-09-18T10:40:19;51.30;41.45;62.47;;
81493;Laerm;70900;51.798;10.954;2023-09-18T10:43:09;54.84;44.38;67.27;;
81493;Laerm;70900;51.798;10.954;2023-09-18T10:48:46;54.32;45.31;62.44;;
81493;Laerm;70900;51.798;10.954;2023-09-18T10:51:34;56.71;43.72;71.10;;
81493;Laerm;70900;51.798;10.954;2023-09-18T10:54:24;57.05;48.69;65.82;;
81493;Laerm;70900;51.798;10.954;2023-09-18T10:57:08;57.01;44.36;66.88;;
81493;Laerm;70900;51.798;10.954;2023-09-18T11:00:04;58.21;42.80;70.57;;
81493;Laerm;70900;51.798;10.954;2023-09-18T11:03:10;55.95;45.03;67.08;;
81493;Laerm;70900;51.798;10.954;2023-09-18T11:06:06;57.34;42.26;79.29;;
81493;Laerm;70900;51.798;10.954;2023-09-18T11:11:47;66.09;42.89;83.94;;
81493;Laerm;70900;51.798;10.954;2023-09-18T11:14:47;55.46;42.58;70.09;;
81493;Laerm;70900;51.798;10.954;2023-09-18T11:20:23;65.50;44.55;80.61;;
81493;Laerm;70900;51.798;10.954;2023-09-18T11:23:16;58.67;44.02;76.75;;
81493;Laerm;70900;51.798;10.954;2023-09-18T11:25:58;53.90;42.09;64.26;;
81493;Laerm;70900;51.798;10.954;2023-09-18T11:28:46;54.43;40.36;65.42;;
81493;Laerm;70900;51.798;10.954;2023-09-18T11:31:50;51.92;41.92;65.88;;
81493;Laerm;70900;51.798;10.954;2023-09-18T11:34:35;58.56;42.23;74.25;;
81493;Laerm;70900;51.798;10.954;2023-09-18T11:37:37;56.51;43.77;70.10;;
81493;Laerm;70900;51.798;10.954;2023-09-18T11:40:31;60.40;43.84;77.32;;
81493;Laerm;70900;51.798;10.954;2023-09-18T11:43:20;51.25;40.39;65.57;;
81493;Laerm;70900;51.798;10.954;2023-09-18T11:46:07;51.67;41.35;64.43;;
81493;Laerm;70900;51.798;10.954;2023-09-18T11:51:48;61.49;40.06;81.73;;
81493;Laerm;70900;51.798;10.954;2023-09-18T11:54:36;56.98;39.52;73.61;;
81493;Laerm;70900;51.798;10.954;2023-09-18T11:57:31;52.84;41.20;67.68;;
81493;Laerm;70900;51.798;10.954;2023-09-18T12:00:17;46.43;40.59;54.97;;
81493;Laerm;70900;51.798;10.954;2023-09-18T12:03:20;51.34;38.81;67.39;;
81493;Laerm;70900;51.798;10.954;2023-09-18T12:06:16;51.70;41.01;73.68;;
81493;Laerm;70900;51.798;10.954;2023-09-18T12:09:01;62.50;42.56;78.19;;
81493;Laerm;70900;51.798;10.954;2023-09-18T12:14:45;55.50;37.96;70.40;;
81493;Laerm;70900;51.798;10.954;2023-09-18T12:20:31;51.72;39.31;62.69;;
81493;Laerm;70900;51.798;10.954;2023-09-18T12:26:10;58.43;38.14;69.31;;
81493;Laerm;70900;51.798;10.954;2023-09-18T12:29:03;61.16;42.26;76.70;;
81493;Laerm;70900;51.798;10.954;2023-09-18T12:31:51;44.34;39.85;59.43;;
81493;Laerm;70900;51.798;10.954;2023-09-18T12:37:31;56.33;37.56;69.65;;
81493;Laerm;70900;51.798;10.954;2023-09-18T12:43:18;47.25;38.42;62.93;;
81493;Laerm;70900;51.798;10.954;2023-09-18T12:46:14;55.25;39.18;69.50;;
81493;Laerm;70900;51.798;10.954;2023-09-18T12:52:24;57.63;37.98;73.98;;
81493;Laerm;70900;51.798;10.954;2023-09-18T12:55:21;51.76;37.32;72.74;;
81493;Laerm;70900;51.798;10.954;2023-09-18T12:58:22;51.81;37.46;64.02;;
81493;Laerm;70900;51.798;10.954;2023-09-18T13:01:32;53.98;37.77;66.26;;
81493;Laerm;70900;51.798;10.954;2023-09-18T13:10:12;54.83;40.19;69.10;;
81493;Laerm;70900;51.798;10.954;2023-09-18T13:13:03;57.17;40.66;68.58;;
81493;Laerm;70900;51.798;10.954;2023-09-18T13:15:48;55.26;37.95;67.37;;
81493;Laerm;70900;51.798;10.954;2023-09-18T13:18:39;60.36;39.56;76.48;;
81493;Laerm;70900;51.798;10.954;2023-09-18T13:21:29;56.90;40.36;70.22;;
81493;Laerm;70900;51.798;10.954;2023-09-18T13:24:23;56.23;38.73;66.14;;
81493;Laerm;70900;51.798;10.954;2023-09-18T13:27:10;53.82;36.72;70.71;;
81493;Laerm;70900;51.798;10.954;2023-09-18T13:29:56;54.39;40.40;65.39;;
81493;Laerm;70900;51.798;10.954;2023-09-18T13:32:47;51.33;38.72;66.53;;
81493;Laerm;70900;51.798;10.954;2023-09-18T13:35:53;53.85;38.56;71.19;;
81493;Laerm;70900;51.798;10.954;2023-09-18T13:41:34;54.41;38.25;66.07;;
81493;Laerm;70900;51.798;10.954;2023-09-18T13:44:12;54.67;37.45;66.25;;
81493;Laerm;70900;51.798;10.954;2023-09-18T13:47:10;57.38;36.01;67.19;;
81493;Laerm;70900;51.798;10.954;2023-09-18T13:50:04;50.38;38.54;62.65;;
81493;Laerm;70900;51.798;10.954;2023-09-18T13:55:49;55.26;38.85;69.38;;
81493;Laerm;70900;51.798;10.954;2023-09-18T13:58:41;56.47;38.09;72.19;;
81493;Laerm;70900;51.798;10.954;2023-09-18T14:01:41;57.73;41.97;64.43;;
81493;Laerm;70900;51.798;10.954;2023-09-18T14:04:21;60.04;50.60;67.50;;
81493;Laerm;70900;51.798;10.954;2023-09-18T14:07:20;62.54;47.04;71.44;;
81493;Laerm;70900;51.798;10.954;2023-09-18T14:10:06;62.03;50.99;74.97;;
81493;Laerm;70900;51.798;10.954;2023-09-18T14:13:02;58.26;39.05;70.80;;
81493;Laerm;70900;51.798;10.954;2023-09-18T14:15:43;54.35;39.61;68.06;;
81493;Laerm;70900;51.798;10.954;2023-09-18T14:18:33;54.44;40.24;67.05;;
81493;Laerm;70900;51.798;10.954;2023-09-18T14:21:28;58.38;41.97;70.78;;
81493;Laerm;70900;51.798;10.954;2023-09-18T14:24:33;56.73;41.74;65.84;;
81493;Laerm;70900;51.798;10.954;2023-09-18T14:30:22;61.43;48.14;75.31;;
81493;Laerm;70900;51.798;10.954;2023-09-18T14:33:00;60.84;39.56;69.05;;
81493;Laerm;70900;51.798;10.954;2023-09-18T14:38:36;57.50;37.45;66.43;;
81493;Laerm;70900;51.798;10.954;2023-09-18T14:41:20;55.40;37.09;69.14;;
81493;Laerm;70900;51.798;10.954;2023-09-18T14:44:11;58.41;39.94;67.87;;
81493;Laerm;70900;51.798;10.954;2023-09-18T14:46:53;59.25;42.82;65.58;;
81493;Laerm;70900;51.798;10.954;2023-09-18T14:49:46;57.39;38.03;70.40;;
81493;Laerm;70900;51.798;10.954;2023-09-18T14:52:44;56.89;41.79;68.45;;
81493;Laerm;70900;51.798;10.954;2023-09-18T14:55:42;59.86;39.41;76.16;;
81493;Laerm;70900;51.798;10.954;2023-09-18T14:58:34;58.79;39.26;77.43;;
81493;Laerm;70900;51.798;10.954;2023-09-18T15:01:16;52.72;36.87;66.04;;
81493;Laerm;70900;51.798;10.954;2023-09-18T15:04:17;51.60;37.02;66.22;;
81493;Laerm;70900;51.798;10.954;2023-09-18T15:07:02;56.09;39.19;67.12;;
81493;Laerm;70900;51.798;10.954;2023-09-18T15:09:49;55.91;40.92;68.38;;
81493;Laerm;70900;51.798;10.954;2023-09-18T15:12:26;56.62;39.13;66.64;;
81493;Laerm;70900;51.798;10.954;2023-09-18T15:14:54;58.51;38.87;75.37;;
81493;Laerm;70900;51.798;10.954;2023-09-18T15:17:20;53.24;37.82;65.38;;
81493;Laerm;70900;51.798;10.954;2023-09-18T15:19:46;59.64;39.43;71.72;;
81493;Laerm;70900;51.798;10.954;2023-09-18T15:22:14;57.18;39.33;71.65;;
81493;Laerm;70900;51.798;10.954;2023-09-18T15:24:40;56.98;40.53;69.55;;
81493;Laerm;70900;51.798;10.954;2023-09-18T15:27:06;51.00;38.90;63.75;;
81493;Laerm;70900;51.798;10.954;2023-09-18T15:29:32;54.71;38.53;65.55;;
81493;Laerm;70900;51.798;10.954;2023-09-18T15:31:57;54.26;38.30;65.13;;
81493;Laerm;70900;51.798;10.954;2023-09-18T15:34:22;56.36;38.39;72.30;;
81493;Laerm;70900;51.798;10.954;2023-09-18T15:36:48;53.80;39.99;65.15;;
81493;Laerm;70900;51.798;10.954;2023-09-18T15:39:14;57.15;49.23;65.82;;
81493;Laerm;70900;51.798;10.954;2023-09-18T15:41:40;59.07;49.95;64.13;;
81493;Laerm;70900;51.798;10.954;2023-09-18T15:44:05;59.30;47.85;67.17;;
81493;Laerm;70900;51.798;10.954;2023-09-18T15:46:31;62.28;48.82;70.29;;
81493;Laerm;70900;51.798;10.954;2023-09-18T15:48:57;60.20;46.25;70.07;;
81493;Laerm;70900;51.798;10.954;2023-09-18T15:51:24;62.22;50.17;76.55;;
81493;Laerm;70900;51.798;10.954;2023-09-18T15:53:49;60.72;42.42;68.43;;
81493;Laerm;70900;51.798;10.954;2023-09-18T15:56:15;47.16;37.48;62.88;;
81493;Laerm;70900;51.798;10.954;2023-09-18T15:58:40;55.63;38.19;67.64;;
81493;Laerm;70900;51.798;10.954;2023-09-18T16:01:06;56.00;38.14;67.22;;
81493;Laerm;70900;51.798;10.954;2023-09-18T16:03:33;57.53;40.08;64.75;;
81493;Laerm;70900;51.798;10.954;2023-09-18T16:05:58;55.72;39.84;64.22;;
81493;Laerm;70900;51.798;10.954;2023-09-18T16:08:24;56.82;36.34;69.71;;
81493;Laerm;70900;51.798;10.954;2023-09-18T16:10:49;52.62;36.84;67.48;;
81493;Laerm;70900;51.798;10.954;2023-09-18T16:13:15;56.65;39.06;66.70;;
81493;Laerm;70900;51.798;10.954;2023-09-18T16:15:41;62.01;36.77;78.12;;
81493;Laerm;70900;51.798;10.954;2023-09-18T16:18:10;57.88;37.91;68.21;;
81493;Laerm;70900;51.798;10.954;2023-09-18T16:20:36;61.08;40.33;68.25;;
81493;Laerm;70900;51.798;10.954;2023-09-18T16:23:01;57.73;39.99;65.46;;
81493;Laerm;70900;51.798;10.954;2023-09-18T16:25:26;60.00;45.00;76.53;;
81493;Laerm;70900;51.798;10.954;2023-09-18T16:27:52;59.24;51.29;67.26;;
81493;Laerm;70900;51.798;10.954;2023-09-18T16:30:19;59.64;39.17;71.94;;
81493;Laerm;70900;51.798;10.954;2023-09-18T16:32:45;55.63;35.69;66.25;;
81493;Laerm;70900;51.798;10.954;2023-09-18T16:35:11;57.75;39.63;71.12;;
81493;Laerm;70900;51.798;10.954;2023-09-18T16:37:37;54.63;36.74;66.44;;
81493;Laerm;70900;51.798;10.954;2023-09-18T16:40:04;56.27;49.07;64.35;;
81493;Laerm;70900;51.798;10.954;2023-09-18T16:42:30;57.25;35.19;66.45;;
81493;Laerm;70900;51.798;10.954;2023-09-18T16:44:56;51.56;35.06;67.47;;
81493;Laerm;70900;51.798;10.954;2023-09-18T16:47:21;52.33;33.68;64.76;;
81493;Laerm;70900;51.798;10.954;2023-09-18T16:49:49;56.28;35.94;67.77;;
81493;Laerm;70900;51.798;10.954;2023-09-18T16:52:14;58.27;34.95;73.97;;
81493;Laerm;70900;51.798;10.954;2023-09-18T16:54:42;56.16;36.34;67.27;;
81493;Laerm;70900;51.798;10.954;2023-09-18T16:57:08;52.97;34.65;66.62;;
81493;Laerm;70900;51.798;10.954;2023-09-18T16:59:33;53.08;32.91;68.04;;
81493;Laerm;70900;51.798;10.954;2023-09-18T17:01:59;56.14;33.47;70.40;;
81493;Laerm;70900;51.798;10.954;2023-09-18T17:04:26;50.85;33.47;62.82;;